Time;durP1;ratioP1;P1;durP2;ratioP2;P2;SDS_P1;SDS_P2;PMS_P1;PMS_P2;Temp;Humidity;BMP_temperature;BMP_pressure;BME280_temperature;BME280_humidity;BME280_pressure;Samples;Min_cycle;Max_cycle;Signal;HPM_P1;HPM_P2
2023/04/26 00:00:18;;;;;;;8.43;2.88;;;3.40;96.80;;;;;;5007694;28;20136;-67
2023/04/26 00:02:44;;;;;;;9.30;3.33;;;3.40;96.70;;;;;;5000902;28;20592;-67
2023/04/26 00:05:09;;;;;;;6.80;2.05;;;3.40;96.70;;;;;;5012485;28;20537;-68
2023/04/26 00:07:36;;;;;;;5.82;2.35;;;3.30;96.80;;;;;;5006278;28;20449;-67
2023/04/26 00:10:03;;;;;;;9.25;2.60;;;3.30;96.90;;;;;;5010992;28;20452;-68
2023/04/26 00:12:29;;;;;;;8.80;2.30;;;3.30;96.90;;;;;;5008524;28;20048;-68
2023/04/26 00:14:54;;;;;;;8.55;2.15;;;3.30;96.90;;;;;;5012434;28;20120;-67
2023/04/26 00:17:20;;;;;;;7.97;2.17;;;3.30;97.00;;;;;;5004165;28;20045;-67
2023/04/26 00:19:45;;;;;;;6.90;2.83;;;3.20;97.20;;;;;;5024440;28;20072;-67
2023/04/26 00:22:11;;;;;;;9.68;2.47;;;3.20;97.20;;;;;;5009887;28;20091;-67
2023/04/26 00:24:37;;;;;;;6.57;2.30;;;3.20;97.30;;;;;;5001833;28;20477;-68
2023/04/26 00:27:07;;;;;;;8.65;2.33;;;3.10;97.40;;;;;;5002677;28;20124;-67
2023/04/26 00:29:33;;;;;;;;;;;3.10;97.50;;;;;;5022659;28;20069;-68
2023/04/26 00:31:59;;;;;;;6.03;1.95;;;3.10;97.90;;;;;;4999816;28;20384;-67
2023/04/26 00:34:30;;;;;;;10.50;2.63;;;3.00;97.60;;;;;;5019052;28;22159;-67
2023/04/26 00:36:55;;;;;;;3.33;1.88;;;3.10;97.70;;;;;;4995955;28;20504;-68
2023/04/26 00:39:21;;;;;;;5.68;1.98;;;3.10;97.70;;;;;;5004934;28;20033;-67
2023/04/26 00:41:47;;;;;;;5.68;1.98;;;3.10;97.80;;;;;;4999063;28;20060;-68
2023/04/26 00:44:13;;;;;;;6.05;2.60;;;3.20;97.80;;;;;;5014914;28;20044;-67
2023/04/26 00:46:39;;;;;;;5.80;2.00;;;3.30;97.70;;;;;;5007555;28;20041;-67
2023/04/26 00:49:04;;;;;;;8.77;2.15;;;3.20;97.50;;;;;;5004608;28;20065;-68
2023/04/26 00:51:30;;;;;;;5.30;2.05;;;3.30;97.90;;;;;;5003900;28;20041;-68
2023/04/26 00:53:56;;;;;;;8.18;2.28;;;3.20;97.40;;;;;;5018600;28;20064;-67
2023/04/26 00:56:23;;;;;;;6.18;2.17;;;3.20;97.50;;;;;;4992419;28;20137;-68
2023/04/26 00:58:49;;;;;;;8.25;2.15;;;3.20;97.60;;;;;;5001326;28;20497;-68
2023/04/26 01:01:15;;;;;;;8.48;2.15;;;3.20;97.50;;;;;;4997373;28;20041;-68
2023/04/26 01:03:43;;;;;;;8.60;2.10;;;3.20;97.60;;;;;;5000852;28;20500;-68
2023/04/26 01:06:08;;;;;;;4.80;2.10;;;3.20;97.70;;;;;;5023123;28;20494;-68
2023/04/26 01:08:34;;;;;;;6.72;2.03;;;3.20;97.70;;;;;;5008397;28;20069;-68
2023/04/26 01:11:00;;;;;;;6.13;2.10;;;3.20;97.70;;;;;;5007923;28;20113;-67
2023/04/26 01:13:27;;;;;;;7.30;2.15;;;3.20;97.80;;;;;;5003098;28;20045;-68
2023/04/26 01:15:55;;;;;;;5.95;2.40;;;3.20;97.80;;;;;;5008673;28;20041;-68
2023/04/26 01:18:20;;;;;;;8.50;2.20;;;3.10;97.90;;;;;;4999915;28;20042;-67
2023/04/26 01:20:47;;;;;;;10.65;2.40;;;3.20;97.90;;;;;;5009259;28;20171;-67
2023/04/26 01:23:12;;;;;;;4.93;1.73;;;3.10;97.90;;;;;;5005471;28;20121;-68
2023/04/26 01:25:38;;;;;;;4.65;1.88;;;3.10;98.00;;;;;;5002684;28;20132;-67
2023/04/26 01:28:04;;;;;;;7.28;2.20;;;3.10;98.00;;;;;;5003022;28;20037;-68
2023/04/26 01:30:29;;;;;;;8.07;2.75;;;3.10;98.10;;;;;;5003377;28;20045;-68
2023/04/26 01:32:55;;;;;;;6.20;1.90;;;3.00;98.50;;;;;;5007583;28;20050;-67
2023/04/26 01:35:21;;;;;;;5.43;2.30;;;3.00;98.30;;;;;;5009806;28;20382;-68
2023/04/26 01:37:46;;;;;;;6.63;1.92;;;3.00;98.40;;;;;;5026300;28;20430;-67
2023/04/26 01:40:12;;;;;;;5.68;2.05;;;3.00;98.40;;;;;;5013611;28;20056;-67
2023/04/26 01:42:38;;;;;;;6.32;2.40;;;3.00;98.40;;;;;;5007057;28;20084;-67
2023/04/26 01:45:04;;;;;;;9.07;2.03;;;3.00;98.50;;;;;;5025803;28;20029;-68
2023/04/26 01:47:29;;;;;;;7.03;2.25;;;3.00;98.60;;;;;;5007064;28;20056;-68
2023/04/26 01:49:55;;;;;;;6.43;2.20;;;3.00;98.70;;;;;;5003906;28;20041;-68
2023/04/26 01:52:21;;;;;;;12.30;2.35;;;3.00;98.80;;;;;;5000350;28;20047;-68
2023/04/26 01:54:47;;;;;;;6.38;2.25;;;3.00;98.80;;;;;;5003359;28;20042;-68
2023/04/26 01:57:12;;;;;;;5.63;2.05;;;2.90;98.80;;;;;;5005725;28;20095;-68
2023/04/26 01:59:38;;;;;;;7.65;2.25;;;2.90;98.90;;;;;;4999930;28;20045;-68
2023/04/26 02:02:04;;;;;;;5.97;1.77;;;2.90;98.90;;;;;;5016523;28;20160;-68
2023/04/26 02:04:29;;;;;;;6.35;2.63;;;2.90;99.00;;;;;;5003324;28;22731;-68
2023/04/26 02:06:56;;;;;;;7.03;2.40;;;2.90;99.00;;;;;;5009581;28;20041;-67
2023/04/26 02:09:21;;;;;;;4.80;2.10;;;2.90;99.10;;;;;;5006271;28;20041;-67
2023/04/26 02:11:47;;;;;;;4.93;2.35;;;2.80;99.10;;;;;;5024174;28;20037;-67
2023/04/26 02:14:12;;;;;;;8.75;2.78;;;2.80;99.20;;;;;;5010844;28;20061;-68
2023/04/26 02:16:42;;;;;;;7.97;2.22;;;2.80;99.30;;;;;;4990322;28;20037;-68
2023/04/26 02:19:09;;;;;;;5.38;2.15;;;2.80;99.40;;;;;;5026937;28;20068;-67
2023/04/26 02:21:56;;;;;;;8.93;2.03;;;2.80;99.50;;;;;;5021372;28;20037;-67
2023/04/26 02:24:22;;;;;;;5.68;2.30;;;2.80;99.70;;;;;;5003555;28;20140;-68
2023/04/26 02:26:47;;;;;;;7.78;2.08;;;2.90;99.80;;;;;;4997085;28;20033;-68
2023/04/26 02:29:13;;;;;;;9.25;3.10;;;3.00;99.40;;;;;;4999983;28;20084;-68
2023/04/26 02:31:39;;;;;;;6.53;2.42;;;3.00;99.40;;;;;;4996928;28;20053;-67
2023/04/26 02:34:05;;;;;;;6.00;2.22;;;3.00;99.30;;;;;;5016385;28;20037;-67
2023/04/26 02:36:31;;;;;;;5.43;2.30;;;3.10;99.40;;;;;;5021978;28;20041;-67
2023/04/26 02:38:57;;;;;;;6.32;2.13;;;3.20;99.40;;;;;;5002769;28;20052;-68
2023/04/26 02:41:23;;;;;;;4.60;2.13;;;3.10;99.50;;;;;;4998082;28;20033;-67
2023/04/26 02:43:49;;;;;;;7.40;2.20;;;3.10;99.30;;;;;;5000982;28;20136;-68
2023/04/26 02:46:15;;;;;;;3.28;2.05;;;3.00;99.30;;;;;;5005195;28;20124;-67
2023/04/26 02:48:40;;;;;;;7.65;2.50;;;3.00;99.40;;;;;;4995866;28;20041;-68
2023/04/26 02:51:06;;;;;;;4.85;1.95;;;2.90;99.40;;;;;;4995501;28;20041;-68
2023/04/26 02:53:32;;;;;;;11.82;2.30;;;3.00;99.50;;;;;;4997806;28;20509;-67
2023/04/26 02:55:59;;;;;;;6.47;2.08;;;2.90;99.50;;;;;;5007717;28;20034;-68
2023/04/26 02:58:25;;;;;;;6.13;2.05;;;2.90;99.50;;;;;;5004534;28;20073;-68
2023/04/26 03:00:50;;;;;;;4.32;2.45;;;2.90;99.50;;;;;;5006853;28;20042;-67
2023/04/26 03:03:16;;;;;;;6.28;2.28;;;2.90;99.60;;;;;;5006108;28;20065;-67
2023/04/26 03:05:42;;;;;;;14.73;2.53;;;2.90;99.60;;;;;;5008453;28;20097;-68
2023/04/26 03:08:08;;;;;;;6.40;2.13;;;2.90;99.60;;;;;;5010995;28;20136;-67
2023/04/26 03:10:33;;;;;;;5.78;2.20;;;2.80;99.70;;;;;;5005374;28;20141;-67
2023/04/26 03:12:59;;;;;;;4.30;2.10;;;2.80;99.70;;;;;;5011589;28;20129;-68
2023/04/26 03:15:24;;;;;;;7.65;2.10;;;2.80;99.70;;;;;;5005860;28;20060;-68
2023/04/26 03:17:50;;;;;;;4.80;1.95;;;2.80;99.70;;;;;;5007699;28;20546;-67
2023/04/26 03:20:16;;;;;;;6.15;2.17;;;2.80;99.70;;;;;;5012238;28;20045;-67
2023/04/26 03:22:42;;;;;;;6.75;2.15;;;2.70;99.80;;;;;;5013337;28;20057;-67
2023/04/26 03:25:08;;;;;;;4.57;1.73;;;2.80;99.80;;;;;;5010840;28;20507;-68
2023/04/26 03:27:33;;;;;;;4.38;1.95;;;2.70;99.80;;;;;;5003469;28;20638;-68
2023/04/26 03:29:59;;;;;;;9.27;2.47;;;2.70;99.80;;;;;;5008132;28;20091;-68
2023/04/26 03:32:25;;;;;;;8.68;2.28;;;2.70;99.90;;;;;;5010207;28;20041;-67
2023/04/26 03:34:50;;;;;;;6.65;2.95;;;2.80;99.90;;;;;;5013844;28;20044;-68
2023/04/26 03:37:16;;;;;;;8.73;1.80;;;2.80;99.90;;;;;;5011143;28;20064;-67
2023/04/26 03:39:41;;;;;;;5.72;2.88;;;2.80;99.90;;;;;;5014990;28;20033;-67
2023/04/26 03:42:07;;;;;;;5.53;1.90;;;2.80;99.80;;;;;;5010741;28;20041;-67
2023/04/26 03:44:32;;;;;;;5.50;1.92;;;2.80;99.90;;;;;;5013235;28;20041;-68
2023/04/26 03:46:58;;;;;;;7.28;2.05;;;2.70;99.90;;;;;;5007457;28;20033;-68
2023/04/26 03:49:24;;;;;;;8.90;2.38;;;2.70;99.90;;;;;;5008874;28;20041;-68
2023/04/26 03:51:49;;;;;;;5.15;2.00;;;2.80;99.90;;;;;;5013309;28;20068;-67
2023/04/26 03:54:15;;;;;;;4.22;1.85;;;2.80;99.90;;;;;;5011288;28;20425;-68
2023/04/26 03:56:40;;;;;;;5.45;2.45;;;2.80;99.90;;;;;;5012419;28;20037;-68
2023/04/26 03:59:08;;;;;;;7.10;2.22;;;2.80;99.90;;;;;;5005738;28;20052;-67
2023/04/26 04:01:33;;;;;;;8.82;2.20;;;2.90;99.90;;;;;;5023513;28;20065;-68
2023/04/26 04:03:59;;;;;;;4.03;1.88;;;2.90;99.90;;;;;;5008133;28;20065;-67
2023/04/26 04:06:25;;;;;;;7.93;2.78;;;2.90;99.90;;;;;;5010559;28;20110;-67
2023/04/26 04:08:51;;;;;;;4.60;2.33;;;2.90;99.90;;;;;;4994676;28;20488;-68
2023/04/26 04:11:16;;;;;;;12.30;2.58;;;2.90;99.90;;;;;;5025501;28;20041;-67
2023/04/26 04:13:42;;;;;;;4.60;2.08;;;2.90;99.90;;;;;;4996403;28;20041;-67
2023/04/26 04:16:09;;;;;;;6.05;2.35;;;3.00;99.90;;;;;;5006788;28;20624;-68
2023/04/26 04:18:35;;;;;;;8.43;2.03;;;3.00;99.90;;;;;;5029457;28;20052;-67
2023/04/26 04:21:00;;;;;;;5.85;2.10;;;3.00;99.90;;;;;;5009179;28;20041;-67
2023/04/26 04:23:26;;;;;;;3.50;2.30;;;3.00;99.90;;;;;;5012180;28;20052;-67
2023/04/26 04:25:52;;;;;;;8.02;2.00;;;3.10;99.90;;;;;;5010911;28;20033;-67
2023/04/26 04:28:18;;;;;;;6.70;2.50;;;3.10;99.90;;;;;;5009469;28;20404;-67
2023/04/26 04:30:45;;;;;;;8.55;2.45;;;3.10;99.90;;;;;;5005886;28;20473;-67
2023/04/26 04:33:11;;;;;;;4.70;2.10;;;3.10;99.90;;;;;;5027102;28;20051;-67
2023/04/26 04:35:37;;;;;;;4.43;2.20;;;3.10;99.90;;;;;;5003326;28;20469;-68
2023/04/26 04:38:03;;;;;;;7.43;2.67;;;3.10;99.90;;;;;;4995810;28;20498;-67
2023/04/26 04:40:29;;;;;;;4.57;2.20;;;3.00;99.90;;;;;;4998400;28;20040;-67
2023/04/26 04:42:55;;;;;;;5.55;1.92;;;3.00;99.90;;;;;;5013506;28;20042;-67
2023/04/26 04:45:20;;;;;;;5.05;2.00;;;2.90;99.90;;;;;;4997609;28;20049;-68
2023/04/26 04:47:46;;;;;;;8.13;2.30;;;2.90;99.90;;;;;;4995753;28;20461;-67
2023/04/26 04:50:12;;;;;;;6.78;2.35;;;2.90;99.90;;;;;;5000049;28;20164;-67
2023/04/26 04:52:37;;;;;;;7.43;2.83;;;2.90;99.90;;;;;;4980964;28;20048;-67
2023/04/26 04:55:03;;;;;;;7.10;2.28;;;2.90;99.90;;;;;;5021202;28;20480;-68
2023/04/26 04:57:30;;;;;;;8.85;3.10;;;3.00;99.90;;;;;;4983935;28;20053;-67
2023/04/26 04:59:56;;;;;;;7.30;2.42;;;2.90;99.90;;;;;;5016803;28;20064;-67
2023/04/26 05:02:21;;;;;;;7.22;2.20;;;3.00;99.90;;;;;;4992710;28;20057;-68
2023/04/26 05:04:47;;;;;;;6.07;2.35;;;3.00;99.90;;;;;;5002016;28;20142;-68
2023/04/26 05:07:14;;;;;;;5.88;2.22;;;3.10;99.90;;;;;;5007873;28;20056;-67
2023/04/26 05:09:41;;;;;;;8.98;2.33;;;3.20;99.90;;;;;;5028238;28;20038;-67
2023/04/26 05:12:06;;;;;;;6.15;2.30;;;3.30;99.90;;;;;;5013386;28;20500;-68
2023/04/26 05:14:32;;;;;;;6.65;2.67;;;3.40;99.90;;;;;;5029355;28;20124;-67
2023/04/26 05:16:58;;;;;;;7.65;3.08;;;3.50;99.90;;;;;;5010528;28;20168;-67
2023/04/26 05:19:24;;;;;;;6.35;2.80;;;3.50;99.90;;;;;;5028653;28;20113;-67
2023/04/26 05:21:49;;;;;;;7.72;4.45;;;3.60;99.90;;;;;;5028780;28;20529;-67
2023/04/26 05:24:15;;;;;;;9.65;4.20;;;3.60;99.90;;;;;;5025578;28;20528;-67
2023/04/26 05:26:41;;;;;;;6.97;3.35;;;3.80;99.90;;;;;;5028514;28;20034;-67
2023/04/26 05:29:06;;;;;;;7.60;2.90;;;3.80;99.90;;;;;;5002737;28;20099;-67
2023/04/26 05:31:32;;;;;;;11.48;3.03;;;3.90;99.90;;;;;;5008918;28;20128;-67
2023/04/26 05:33:57;;;;;;;11.13;2.67;;;3.90;99.70;;;;;;5011079;28;20048;-67
2023/04/26 05:36:23;;;;;;;5.40;2.53;;;4.00;99.60;;;;;;5006230;28;20045;-67
2023/04/26 05:38:48;;;;;;;9.98;2.60;;;4.00;99.50;;;;;;5004729;28;20037;-66
2023/04/26 05:41:14;;;;;;;5.18;2.25;;;4.10;99.40;;;;;;5006480;28;20461;-67
2023/04/26 05:43:39;;;;;;;5.47;2.30;;;4.10;99.30;;;;;;4989883;28;20477;-67
2023/04/26 05:46:05;;;;;;;7.45;2.17;;;4.10;99.20;;;;;;5021212;28;20446;-68
2023/04/26 05:48:31;;;;;;;6.35;2.60;;;4.10;99.20;;;;;;5000142;28;20120;-68
2023/04/26 05:50:56;;;;;;;7.63;2.60;;;4.20;99.20;;;;;;5025875;28;20535;-67
2023/04/26 05:53:22;;;;;;;5.18;2.10;;;4.10;99.20;;;;;;5031185;28;20037;-67
2023/04/26 05:55:47;;;;;;;6.03;2.30;;;4.10;99.10;;;;;;5008693;28;20038;-67
2023/04/26 05:58:13;;;;;;;5.53;2.58;;;4.00;99.20;;;;;;4999517;28;20038;-68
2023/04/26 06:00:39;;;;;;;5.82;2.22;;;4.00;99.10;;;;;;5022153;28;20041;-67
2023/04/26 06:03:05;;;;;;;6.13;2.28;;;3.90;99.10;;;;;;5006769;28;20624;-67
2023/04/26 06:05:31;;;;;;;6.63;2.75;;;3.90;99.20;;;;;;5004083;28;20071;-67
2023/04/26 06:07:57;;;;;;;4.95;2.60;;;4.00;99.20;;;;;;5010482;28;20095;-68
2023/04/26 06:10:23;;;;;;;5.97;2.50;;;4.20;99.40;;;;;;5001177;28;20091;-67
2023/04/26 06:12:49;;;;;;;7.15;2.47;;;4.30;97.90;;;;;;5030076;28;20412;-68
2023/04/26 06:15:15;;;;;;;6.05;2.25;;;4.50;99.40;;;;;;5003722;28;20049;-68
2023/04/26 06:17:40;;;;;;;6.03;2.30;;;4.80;99.90;;;;;;5020593;28;20033;-68
2023/04/26 06:20:08;;;;;;;6.55;2.20;;;5.10;99.90;;;;;;5007811;28;20037;-67
2023/04/26 06:22:34;;;;;;;5.20;2.40;;;5.40;99.90;;;;;;5015539;28;20347;-68
2023/04/26 06:25:00;;;;;;;6.90;2.35;;;5.60;99.90;;;;;;5003653;28;20034;-67
2023/04/26 06:27:26;;;;;;;6.57;2.10;;;6.00;99.90;;;;;;5010238;28;20073;-68
2023/04/26 06:29:51;;;;;;;5.18;2.30;;;6.30;99.90;;;;;;5010313;28;20037;-68
2023/04/26 06:32:17;;;;;;;3.80;1.90;;;6.70;96.50;;;;;;5020398;28;20046;-68
2023/04/26 06:34:44;;;;;;;5.38;2.13;;;7.00;99.90;;;;;;5008043;28;20034;-68
2023/04/26 06:37:10;;;;;;;6.90;2.20;;;7.40;99.60;;;;;;5026000;28;20095;-67
2023/04/26 06:39:37;;;;;;;7.38;2.00;;;7.40;99.90;;;;;;5008608;28;20052;-66
2023/04/26 06:42:03;;;;;;;3.40;1.77;;;7.30;99.30;;;;;;4988746;28;20432;-66
2023/04/26 06:44:29;;;;;;;4.35;1.73;;;7.40;98.50;;;;;;5029179;28;20553;-67
2023/04/26 06:46:55;;;;;;;6.07;1.90;;;7.40;97.60;;;;;;4991455;28;20029;-66
2023/04/26 06:49:21;;;;;;;7.20;2.55;;;7.40;96.80;;;;;;5006500;28;20049;-66
2023/04/26 06:51:47;;;;;;;4.40;2.20;;;7.40;96.20;;;;;;5008552;28;20033;-66
2023/04/26 06:54:13;;;;;;;8.52;1.75;;;7.40;95.70;;;;;;5031860;28;20092;-66
2023/04/26 06:56:38;;;;;;;6.70;2.13;;;7.40;95.00;;;;;;5012000;28;20045;-67
2023/04/26 06:59:06;;;;;;;6.00;2.05;;;7.40;94.30;;;;;;4985546;28;20149;-66
2023/04/26 07:01:33;;;;;;;4.05;1.60;;;7.50;93.80;;;;;;5009481;28;20050;-67
2023/04/26 07:04:00;;;;;;;6.05;1.80;;;7.50;93.60;;;;;;4990259;28;20049;-67
2023/04/26 07:06:26;;;;;;;6.00;1.92;;;7.60;92.90;;;;;;5010604;28;20033;-66
2023/04/26 07:08:52;;;;;;;3.92;1.50;;;7.60;92.40;;;;;;4993762;28;20041;-66
2023/04/26 07:11:17;;;;;;;6.90;2.03;;;7.60;91.70;;;;;;4996067;28;20073;-66
2023/04/26 07:13:43;;;;;;;4.63;1.77;;;7.80;91.60;;;;;;5010282;28;20080;-66
2023/04/26 07:16:09;;;;;;;5.38;1.60;;;7.80;91.10;;;;;;4985945;28;20050;-67
2023/04/26 07:18:34;;;;;;;6.88;1.70;;;7.80;90.80;;;;;;4983532;28;20053;-66
2023/04/26 07:21:00;;;;;;;4.75;1.77;;;7.80;90.00;;;;;;4985371;28;20030;-67
2023/04/26 07:23:25;;;;;;;4.13;1.75;;;7.80;90.00;;;;;;4993383;28;20034;-66
2023/04/26 07:25:51;;;;;;;3.65;1.67;;;7.80;90.10;;;;;;4975989;28;20642;-66
2023/04/26 07:28:16;;;;;;;5.13;1.58;;;7.80;90.30;;;;;;4993549;28;20096;-66
2023/04/26 07:30:42;;;;;;;4.28;1.65;;;7.90;90.20;;;;;;4993439;28;20049;-66
2023/04/26 07:33:08;;;;;;;4.72;1.77;;;8.10;90.40;;;;;;4996736;28;20045;-66
2023/04/26 07:35:36;;;;;;;4.35;1.77;;;8.20;90.60;;;;;;4995400;28;20382;-66
2023/04/26 07:38:02;;;;;;;6.22;1.70;;;8.40;90.60;;;;;;4989502;28;20048;-66
2023/04/26 07:40:30;;;;;;;3.38;1.42;;;8.70;89.00;;;;;;4993032;28;20494;-68
2023/04/26 07:42:55;;;;;;;5.70;2.20;;;8.70;90.30;;;;;;5012340;28;20423;-66
2023/04/26 07:45:21;;;;;;;4.45;1.70;;;8.90;90.30;;;;;;4991934;28;20135;-67
2023/04/26 07:47:47;;;;;;;6.93;1.80;;;9.00;89.60;;;;;;4991207;28;20144;-67
2023/04/26 07:50:13;;;;;;;3.10;1.50;;;9.20;89.70;;;;;;4977204;28;20064;-69
2023/04/26 07:52:38;;;;;;;5.78;1.90;;;9.60;88.90;;;;;;5009303;28;20041;-68
2023/04/26 07:55:05;;;;;;;4.30;1.60;;;10.00;89.40;;;;;;5010232;28;20042;-69
2023/04/26 07:57:31;;;;;;;4.50;1.63;;;10.30;89.10;;;;;;4987107;28;20037;-68
2023/04/26 07:59:57;;;;;;;7.45;1.52;;;10.50;87.90;;;;;;4983242;28;20066;-67
2023/04/26 08:02:22;;;;;;;4.40;1.40;;;10.90;86.80;;;;;;4979241;28;20088;-68
2023/04/26 08:04:54;;;;;;;7.47;2.00;;;11.10;83.10;;;;;;4976315;28;20069;-67
2023/04/26 08:07:20;;;;;;;2.40;1.52;;;11.10;82.50;;;;;;5006692;28;20104;-68
2023/04/26 08:09:46;;;;;;;2.58;1.52;;;11.50;81.40;;;;;;4991392;28;20037;-66
2023/04/26 08:12:12;;;;;;;4.90;1.50;;;11.60;77.90;;;;;;4992713;28;20405;-67
2023/04/26 08:14:38;;;;;;;5.38;1.55;;;12.00;79.10;;;;;;4993540;28;20045;-67
2023/04/26 08:17:04;;;;;;;4.38;1.50;;;12.10;78.40;;;;;;4972112;28;20049;-67
2023/04/26 08:19:32;;;;;;;5.90;1.52;;;12.10;77.40;;;;;;4966216;28;20050;-68
2023/04/26 08:21:57;;;;;;;5.25;1.45;;;12.20;77.10;;;;;;4979769;28;20069;-67
2023/04/26 08:24:23;;;;;;;4.63;1.40;;;12.10;75.90;;;;;;4994065;28;24067;-67
2023/04/26 08:26:49;;;;;;;4.78;2.08;;;12.30;75.20;;;;;;4989993;28;20617;-67
2023/04/26 08:29:15;;;;;;;5.38;1.60;;;12.00;72.10;;;;;;5002604;28;20112;-67
2023/04/26 08:31:41;;;;;;;4.32;1.40;;;12.30;72.50;;;;;;4980959;28;20050;-67
2023/04/26 08:34:10;;;;;;;5.97;1.48;;;12.50;71.40;;;;;;4993618;28;20042;-67
2023/04/26 08:36:40;;;;;;;4.00;1.67;;;13.00;69.80;;;;;;4988887;28;21001;-67
2023/04/26 08:39:06;;;;;;;5.60;2.00;;;13.30;67.90;;;;;;5011541;28;20049;-68
2023/04/26 08:41:42;;;;;;;6.05;1.52;;;13.50;67.40;;;;;;4988800;28;20463;-67
2023/04/26 08:44:08;;;;;;;5.78;1.50;;;13.50;64.60;;;;;;4989831;28;20073;-67
2023/04/26 08:46:42;;;;;;;15.70;2.70;;;13.60;66.30;;;;;;4991033;28;20076;-67
2023/04/26 08:49:41;;;;;;;4.65;1.63;;;13.40;61.10;;;;;;4994017;28;20084;-67
2023/04/26 08:52:09;;;;;;;4.28;1.40;;;13.00;57.00;;;;;;4987464;28;20467;-68
2023/04/26 08:54:36;;;;;;;4.85;1.73;;;13.20;62.30;;;;;;4989182;28;20049;-67
2023/04/26 08:57:02;;;;;;;7.40;1.50;;;13.40;62.70;;;;;;4990290;28;20092;-68
2023/04/26 08:59:30;;;;;;;3.75;1.63;;;13.80;61.50;;;;;;4993019;28;20041;-67
2023/04/26 09:01:56;;;;;;;7.18;1.70;;;13.90;60.40;;;;;;4972525;28;20038;-68
2023/04/26 09:04:23;;;;;;;7.57;1.70;;;14.20;59.40;;;;;;4985940;28;20030;-67
2023/04/26 09:06:50;;;;;;;8.10;1.67;;;14.20;58.70;;;;;;5001773;28;20581;-68
2023/04/26 09:09:20;;;;;;;5.70;1.55;;;14.30;57.40;;;;;;4991480;28;20042;-67
2023/04/26 09:11:57;;;;;;;7.22;1.90;;;14.30;56.90;;;;;;4993926;28;20041;-68
2023/04/26 09:14:23;;;;;;;5.10;1.60;;;14.70;56.70;;;;;;4995078;28;20483;-67
2023/04/26 09:16:49;;;;;;;3.33;1.63;;;14.70;57.90;;;;;;4988100;28;20084;-66
2023/04/26 09:19:14;;;;;;;7.65;1.92;;;14.50;57.50;;;;;;5008193;28;20065;-68
2023/04/26 09:21:46;;;;;;;6.35;1.80;;;14.20;57.00;;;;;;4990637;28;20477;-68
2023/04/26 09:24:12;;;;;;;6.88;2.25;;;13.90;55.70;;;;;;5003888;28;20073;-67
2023/04/26 09:26:38;;;;;;;3.92;2.05;;;13.70;54.30;;;;;;5004885;28;20495;-67
2023/04/26 09:29:17;;;;;;;6.03;1.77;;;13.60;51.80;;;;;;5008954;28;20045;-67
2023/04/26 09:31:46;;;;;;;3.75;1.80;;;13.40;51.30;;;;;;5009463;28;20034;-67
2023/04/26 09:34:13;;;;;;;4.15;1.60;;;13.20;51.90;;;;;;4991567;28;20470;-66
2023/04/26 09:36:54;;;;;;;6.18;1.60;;;13.50;53.60;;;;;;4991608;28;20048;-66
2023/04/26 09:39:31;;;;;;;4.32;1.55;;;13.40;54.50;;;;;;5007952;28;20045;-66
2023/04/26 09:41:57;;;;;;;4.85;1.60;;;13.00;55.50;;;;;;4986493;28;20050;-67
2023/04/26 09:44:24;;;;;;;4.30;1.75;;;12.80;56.20;;;;;;4998933;28;20061;-65
2023/04/26 09:47:06;;;;;;;5.35;1.73;;;12.50;56.50;;;;;;4987390;28;20029;-67
2023/04/26 09:49:43;;;;;;;5.30;1.80;;;12.10;54.90;;;;;;4989027;28;20038;-67
2023/04/26 09:52:09;;;;;;;4.13;1.90;;;11.70;57.60;;;;;;5000717;28;20041;-68
2023/04/26 09:54:45;;;;;;;4.00;1.90;;;11.30;58.80;;;;;;4985683;28;20490;-67
2023/04/26 09:57:12;;;;;;;3.80;1.50;;;11.00;60.20;;;;;;4981330;28;20180;-67
2023/04/26 09:59:40;;;;;;;4.03;1.88;;;10.70;61.50;;;;;;4989993;28;20115;-67
2023/04/26 10:02:14;;;;;;;4.47;2.00;;;10.50;62.60;;;;;;4982872;28;20501;-66
2023/04/26 10:04:42;;;;;;;2.67;1.77;;;10.30;63.30;;;;;;4986428;28;20038;-67
2023/04/26 10:07:08;;;;;;;4.45;1.85;;;10.10;63.90;;;;;;4985944;28;20057;-67
2023/04/26 10:09:34;;;;;;;6.88;1.92;;;9.90;64.80;;;;;;4995848;28;20042;-66
2023/04/26 10:12:00;;;;;;;5.55;1.90;;;9.80;65.50;;;;;;4984799;28;20069;-66
2023/04/26 10:14:26;;;;;;;3.85;1.77;;;9.70;65.90;;;;;;4978712;28;20041;-66
2023/04/26 10:16:54;;;;;;;5.07;2.00;;;9.60;66.40;;;;;;4979159;28;20537;-67
2023/04/26 10:19:21;;;;;;;4.90;1.80;;;9.60;67.60;;;;;;4985409;28;20124;-67
2023/04/26 10:21:48;;;;;;;5.32;1.95;;;9.50;68.30;;;;;;4985788;28;20038;-66
2023/04/26 10:24:14;;;;;;;5.60;2.38;;;9.50;69.40;;;;;;4985242;28;20041;-67
2023/04/26 10:26:56;;;;;;;5.30;1.85;;;9.50;69.00;;;;;;4984043;28;20034;-66
2023/04/26 10:29:22;;;;;;;3.83;1.98;;;9.50;69.50;;;;;;5009848;28;20037;-66
2023/04/26 10:32:04;;;;;;;5.03;2.13;;;9.60;69.00;;;;;;4993939;28;20026;-67
2023/04/26 10:34:32;;;;;;;3.97;2.30;;;9.80;69.30;;;;;;4991061;28;20038;-67
2023/04/26 10:37:17;;;;;;;7.93;2.42;;;10.10;68.40;;;;;;4990720;28;20069;-67
2023/04/26 10:39:44;;;;;;;4.20;2.13;;;10.40;67.30;;;;;;4997106;28;20034;-66
2023/04/26 10:42:31;;;;;;;5.00;2.03;;;10.70;66.50;;;;;;4996648;28;20134;-67
2023/04/26 10:44:57;;;;;;;8.25;2.28;;;11.10;66.10;;;;;;4990974;28;20564;-67
2023/04/26 10:47:33;;;;;;;5.88;2.25;;;11.60;65.20;;;;;;4989665;28;20386;-67
2023/04/26 10:50:08;;;;;;;5.57;2.00;;;12.00;64.10;;;;;;4995841;28;20081;-67
2023/04/26 10:52:36;;;;;;;5.63;2.22;;;12.10;62.20;;;;;;4992337;28;20045;-67
2023/04/26 10:55:01;;;;;;;3.00;1.58;;;12.30;62.10;;;;;;4987615;28;20087;-67
2023/04/26 10:57:47;;;;;;;5.72;1.73;;;12.50;61.40;;;;;;4975322;28;20042;-67
2023/04/26 11:00:19;;;;;;;3.53;1.90;;;12.70;58.00;;;;;;4991369;28;20453;-66
2023/04/26 11:02:51;;;;;;;5.38;1.60;;;12.40;58.30;;;;;;4972953;28;20101;-66
2023/04/26 11:05:37;;;;;;;3.05;2.22;;;12.50;58.10;;;;;;4991845;28;20052;-67
2023/04/26 11:08:08;;;;;;;6.68;2.00;;;12.50;56.70;;;;;;4993789;28;20383;-67
2023/04/26 11:10:36;;;;;;;5.75;2.00;;;12.30;56.90;;;;;;4994536;28;20038;-66
2023/04/26 11:13:03;;;;;;;6.38;2.25;;;12.20;58.50;;;;;;4992146;28;20108;-66
2023/04/26 11:15:30;;;;;;;3.17;2.10;;;12.10;59.40;;;;;;4992413;28;20046;-66
2023/04/26 11:17:56;;;;;;;6.63;2.22;;;12.10;59.80;;;;;;4990053;28;20125;-67
2023/04/26 11:20:27;;;;;;;4.63;1.95;;;12.20;60.10;;;;;;4983998;28;20525;-67
2023/04/26 11:22:52;;;;;;;7.35;1.90;;;12.40;58.00;;;;;;4992531;28;20041;-66
2023/04/26 11:25:18;;;;;;;3.35;2.00;;;12.70;57.60;;;;;;5009353;28;20367;-67
2023/04/26 11:27:44;;;;;;;3.58;2.33;;;12.80;56.70;;;;;;4993901;28;20439;-67
2023/04/26 11:30:11;;;;;;;4.78;2.20;;;13.20;56.40;;;;;;4988268;28;20080;-67
2023/04/26 11:32:36;;;;;;;4.63;1.90;;;13.30;55.80;;;;;;4974501;28;20056;-66
2023/04/26 11:35:03;;;;;;;6.18;2.00;;;13.40;55.30;;;;;;4992868;28;20041;-66
2023/04/26 11:37:28;;;;;;;3.50;2.00;;;13.40;55.00;;;;;;4989693;28;20084;-66
2023/04/26 11:39:56;;;;;;;7.22;2.20;;;13.80;54.60;;;;;;4986839;28;20057;-67
2023/04/26 11:42:24;;;;;;;7.07;2.05;;;14.00;54.50;;;;;;4991015;28;20030;-67
2023/04/26 11:44:51;;;;;;;4.70;1.65;;;14.10;54.10;;;;;;5011849;28;20492;-66
2023/04/26 11:47:18;;;;;;;4.95;1.95;;;14.00;54.00;;;;;;5006281;28;20049;-66
2023/04/26 11:49:45;;;;;;;7.60;1.90;;;14.30;53.10;;;;;;4994526;28;20092;-69
2023/04/26 11:52:11;;;;;;;5.55;1.73;;;14.40;53.40;;;;;;4994048;28;20038;-67
2023/04/26 11:54:37;;;;;;;2.17;1.58;;;14.50;52.80;;;;;;5006998;28;20100;-66
2023/04/26 11:57:14;;;;;;;4.40;1.73;;;14.70;52.30;;;;;;4990316;28;20046;-66
2023/04/26 11:59:40;;;;;;;2.60;1.70;;;14.40;47.90;;;;;;5006996;28;20405;-66
2023/04/26 12:02:06;;;;;;;5.75;1.90;;;14.50;51.10;;;;;;4985718;28;20042;-66
2023/04/26 12:04:32;;;;;;;4.45;2.13;;;14.50;51.60;;;;;;4985143;28;20442;-66
2023/04/26 12:06:58;;;;;;;3.78;2.00;;;14.40;53.00;;;;;;4991026;28;20513;-65
2023/04/26 12:09:27;;;;;;;5.53;1.63;;;14.20;54.20;;;;;;4984753;28;20044;-68
2023/04/26 12:11:59;;;;;;;6.93;1.65;;;13.90;55.30;;;;;;4990876;28;20034;-68
2023/04/26 12:14:36;;;;;;;5.43;1.55;;;13.50;56.10;;;;;;5008839;28;20073;-67
2023/04/26 12:17:04;;;;;;;5.35;1.80;;;13.00;56.90;;;;;;4991454;28;20042;-67
2023/04/26 12:19:33;;;;;;;1.90;1.25;;;12.50;57.90;;;;;;4992661;28;20589;-65
2023/04/26 12:21:59;;;;;;;4.70;1.67;;;12.20;58.40;;;;;;4981855;28;20038;-66
2023/04/26 12:24:29;;;;;;;1.52;1.10;;;11.80;59.50;;;;;;4992345;28;20080;-67
2023/04/26 12:26:55;;;;;;;3.70;1.33;;;11.40;60.70;;;;;;4983993;28;20038;-66
2023/04/26 12:29:20;;;;;;;2.92;1.52;;;11.20;61.60;;;;;;4979282;28;20405;-68
2023/04/26 12:31:46;;;;;;;3.50;1.50;;;11.00;62.50;;;;;;4982935;28;20468;-67
2023/04/26 12:34:12;;;;;;;2.58;1.60;;;10.70;63.60;;;;;;4990052;28;20048;-66
2023/04/26 12:36:42;;;;;;;6.50;2.03;;;10.50;64.50;;;;;;4991671;28;20046;-67
2023/04/26 12:39:08;;;;;;;3.70;2.00;;;10.40;65.20;;;;;;4987859;28;20470;-67
2023/04/26 12:41:34;;;;;;;5.50;1.80;;;10.30;65.20;;;;;;4988354;28;20300;-67
2023/04/26 12:44:00;;;;;;;5.18;1.77;;;10.40;65.40;;;;;;5008579;28;20037;-67
2023/04/26 12:46:26;;;;;;;3.40;1.60;;;10.40;65.50;;;;;;4985136;28;20124;-68
2023/04/26 12:48:52;;;;;;;3.45;1.73;;;10.50;65.60;;;;;;4991143;28;20538;-67
2023/04/26 12:51:17;;;;;;;5.97;1.65;;;10.50;65.40;;;;;;4988830;28;20505;-67